Track Макеева Надежда

Time Latitude Longitude Accuracy (66% radius in meters) Altitude (meters) Speed (km/hour) Bearing (degrees) Battery (%) GPS flag
17:03:05 59.985976 30.413721 11.791999816895 44.684448242188 0 0 17 1 delete
17:02:54 59.985924 30.413643 8.576000213623 37.976379394531 0.23000000417233 27.299999237061 17 1 delete
17:02:44 59.985875 30.413621 12.864000320435 37.563232421875 0 0 17 1 delete
17:02:34 59.985877 30.413585 12.864000320435 37.588928222656 0 0 17 1 delete
17:02:23 59.985926 30.413601 9.6480007171631 37.627014160156 0.43000000715256 303.29998779297 17 1 delete
17:02:13 59.985938 30.413632 16.079999923706 37.137756347656 0 0 17 1 delete
17:02:03 59.985887 30.413628 3.2160000801086 35.871887207031 1.6000000238419 265.89999389648 17 1 delete
17:02:00 59.985889 30.413711 3.2160000801086 33.32275390625 1.5800000429153 265.70001220703 17 1 delete
17:01:53 59.985888 30.413908 3.2160000801086 34.542236328125 1.6000000238419 287.10000610352 17 1 delete
17:01:47 59.985877 30.414097 3.2160000801086 35.644104003906 1.6399999856949 285.70001220703 17 1 delete
17:01:42 59.985863 30.414253 3.2160000801086 37.238891601562 1.6499999761581 285.70001220703 17 1 delete
17:01:41 59.985862 30.414286 3.2160000801086 37.575805664062 1.6399999856949 283.20001220703 17 1 delete
17:01:34 59.985795 30.414430 3.2160000801086 39.51611328125 1.6399999856949 5.8000001907349 17 1 delete
17:01:32 59.985763 30.414423 3.2160000801086 39.573974609375 1.6399999856949 9.1999998092651 17 1 delete
17:01:27 59.985690 30.414409 3.2160000801086 38.4970703125 1.6499999761581 5.9000000953674 17 1 delete
17:01:22 59.985612 30.414386 3.2160000801086 38.07763671875 1.6299999952316 7.6999998092651 17 1 delete
17:01:21 59.985594 30.414382 3.2160000801086 37.886840820312 1.6299999952316 6.9000000953674 17 1 delete
17:01:15 59.985488 30.414378 3.2160000801086 38.259826660156 1.5800000429153 345.39999389648 17 1 delete
17:01:11 59.985430 30.414448 3.2160000801086 34.26904296875 1.5499999523163 308 17 1 delete
17:01:08 59.985409 30.414519 3.2160000801086 33.638854980469 1.5499999523163 293.5 17 1 delete
17:01:01 59.985374 30.414650 4.2880001068115 34.094909667969 1.5700000524521 281.79998779297 17 1 delete
17:00:59 59.985367 30.414692 3.2160000801086 33.296508789062 1.5900000333786 284.29998779297 17 1 delete
17:00:52 59.985329 30.414863 3.2160000801086 31.964172363281 1.6299999952316 294.20001220703 17 1 delete
17:00:51 59.985322 30.414892 3.2160000801086 31.447631835938 1.6200000047684 290 17 1 delete
17:00:46 59.985307 30.415044 3.2160000801086 31.167541503906 1.6100000143051 291.10000610352 17 1 delete
17:00:41 59.985291 30.415192 3.2160000801086 31.534606933594 1.5599999427795 283.10000610352 17 1 delete
17:00:39 59.985287 30.415243 3.2160000801086 31.087951660156 1.5700000524521 284.79998779297 17 1 delete
17:00:32 59.985255 30.415430 3.2160000801086 30.802612304688 1.6299999952316 298.39999389648 17 1 delete
17:00:30 59.985239 30.415483 3.2160000801086 31.783508300781 1.6299999952316 297.29998779297 17 1 delete
17:00:25 59.985218 30.415614 3.2160000801086 32.146484375 1.6399999856949 288.60000610352 17 1 delete
17:00:20 59.985200 30.415747 3.2160000801086 32.908508300781 1.6299999952316 284.20001220703 17 1 delete
17:00:18 59.985193 30.415806 3.2160000801086 34.480163574219 1.6399999856949 284 17 1 delete
17:00:11 59.985166 30.415984 3.2160000801086 33.681396484375 1.6699999570847 280.70001220703 17 1 delete
17:00:10 59.985162 30.416013 3.2160000801086 33.699829101562 1.6799999475479 289.10000610352 17 1 delete
17:00:05 59.985134 30.416158 3.2160000801086 33.578247070312 1.6900000572205 288 17 1 delete
17:00:00 59.985100 30.416316 3.2160000801086 34.488647460938 1.7000000476837 295.70001220703 17 1 delete
16:59:59 59.985092 30.416349 3.2160000801086 33.753112792969 1.6900000572205 283.10000610352 17 1 delete
16:59:52 59.985069 30.416550 3.2160000801086 34.751037597656 1.6799999475479 291.5 17 1 delete
16:59:49 59.985063 30.416646 3.2160000801086 34.374267578125 2.2699999809265 286.70001220703 17 1 delete
16:59:47 59.985053 30.416729 3.2160000801086 35.629028320312 2.2799999713898 294.10000610352 17 1 delete
16:59:42 59.985024 30.416904 3.2160000801086 31.764038085938 1.6599999666214 289.39999389648 17 1 delete
16:59:39 59.985014 30.416978 3.2160000801086 32.170104980469 1.6799999475479 274.89999389648 17 1 delete
16:59:36 59.984997 30.417081 3.2160000801086 31.804504394531 2.289999961853 280.20001220703 17 1 delete
16:59:31 59.984987 30.417276 3.2160000801086 33.984252929688 1.6200000047684 290.5 17 1 delete
16:59:29 59.984978 30.417335 3.2160000801086 34.501708984375 1.6299999952316 288.5 17 1 delete
16:59:25 59.984965 30.417456 3.2160000801086 35.303344726562 1.6399999856949 304.10000610352 17 1 delete
16:59:19 59.984931 30.417620 3.2160000801086 36.087646484375 1.6000000238419 320.10000610352 17 1 delete
16:59:18 59.984921 30.417641 3.2160000801086 36.378173828125 1.6100000143051 337.79998779297 17 1 delete
16:59:11 59.984823 30.417670 3.2160000801086 38.022399902344 1.6200000047684 4.4000000953674 17 1 delete
16:59:08 59.984780 30.417663 3.2160000801086 38.59814453125 1.6000000238419 10.60000038147 17 1 delete